Time;durP1;ratioP1;P1;durP2;ratioP2;P2;SDS_P1;SDS_P2;PMS_P1;PMS_P2;Temp;Humidity;BMP_temperature;BMP_pressure;BME280_temperature;BME280_humidity;BME280_pressure;Samples;Min_cycle;Max_cycle;Signal;HPM_P1;HPM_P2
2023/05/12 00:02:12;;;;;;;12.30;9.65;;;11.20;38.70;;;;;;7365976;19;20062;-73
2023/05/12 00:04:45;;;;;;;10.60;8.82;;;11.20;38.70;;;;;;7367790;19;20007;-72
2023/05/12 00:07:15;;;;;;;11.20;8.82;;;11.20;39.30;;;;;;7368581;19;20022;-72
2023/05/12 00:09:45;;;;;;;11.40;10.18;;;11.20;39.40;;;;;;7366939;19;20078;-72
2023/05/12 00:12:15;;;;;;;15.00;11.05;;;11.10;39.40;;;;;;7366793;19;20018;-72
2023/05/12 00:14:45;;;;;;;13.85;11.55;;;11.10;40.50;;;;;;7389007;19;20652;-72
2023/05/12 00:17:15;;;;;;;14.98;11.13;;;11.10;41.10;;;;;;7367756;19;20017;-72
2023/05/12 00:19:47;;;;;;;15.15;11.20;;;11.00;41.80;;;;;;7366004;19;20007;-72
2023/05/12 00:22:17;;;;;;;17.92;12.43;;;11.00;42.10;;;;;;7365490;19;20006;-73
2023/05/12 00:24:47;;;;;;;15.95;12.60;;;11.00;42.20;;;;;;7367443;19;20010;-73
2023/05/12 00:27:17;;;;;;;16.52;12.65;;;11.00;43.10;;;;;;7368600;19;20010;-72
2023/05/12 00:29:47;;;;;;;16.85;12.75;;;10.90;43.50;;;;;;7386465;19;20070;-72
2023/05/12 00:32:17;;;;;;;16.88;12.73;;;10.90;44.50;;;;;;7364534;19;20029;-72
2023/05/12 00:34:53;;;;;;;16.45;12.50;;;10.80;44.90;;;;;;7367189;19;20018;-72
2023/05/12 00:37:22;;;;;;;14.75;12.10;;;10.80;45.90;;;;;;7367663;19;20034;-72
2023/05/12 00:39:52;;;;;;;17.08;13.30;;;10.80;46.30;;;;;;7366143;19;20074;-73
2023/05/12 00:42:22;;;;;;;19.08;13.77;;;10.70;47.20;;;;;;7363479;19;20022;-72
2023/05/12 00:44:52;;;;;;;22.05;13.63;;;10.80;47.90;;;;;;7386993;19;20018;-72
2023/05/12 00:47:22;;;;;;;20.45;14.27;;;10.70;48.10;;;;;;7367170;19;20003;-72
2023/05/12 00:49:55;;;;;;;20.67;14.60;;;10.70;48.70;;;;;;7364601;19;20042;-72
2023/05/12 00:52:25;;;;;;;21.20;14.70;;;10.70;49.50;;;;;;7364641;19;20022;-72
2023/05/12 00:54:55;;;;;;;20.23;14.88;;;10.70;50.10;;;;;;7366893;19;21588;-72
2023/05/12 00:57:27;;;;;;;23.00;14.98;;;10.70;50.20;;;;;;7366854;19;20018;-72
2023/05/12 00:59:57;;;;;;;19.65;15.05;;;10.80;51.20;;;;;;7386906;19;20037;-72
2023/05/12 01:02:27;;;;;;;17.85;14.35;;;10.70;51.00;;;;;;7367801;19;20357;-73
2023/05/12 01:05:00;;;;;;;20.83;14.35;;;10.80;51.60;;;;;;7373269;19;20111;-72
2023/05/12 01:07:34;;;;;;;19.15;14.70;;;10.90;52.60;;;;;;7372448;19;20014;-72
2023/05/12 01:10:04;;;;;;;19.02;14.13;;;10.80;52.10;;;;;;7371297;19;20029;-72
2023/05/12 01:12:34;;;;;;;17.85;13.30;;;10.70;52.00;;;;;;7371173;19;20010;-72
2023/05/12 01:15:04;;;;;;;17.52;13.38;;;10.70;52.20;;;;;;7394835;19;20025;-72
2023/05/12 01:17:36;;;;;;;17.65;13.73;;;10.70;52.50;;;;;;7373406;19;20011;-72
2023/05/12 01:20:13;;;;;;;18.45;13.73;;;10.70;52.90;;;;;;7370359;19;20014;-72
2023/05/12 01:22:44;;;;;;;18.45;13.38;;;10.70;52.40;;;;;;7370792;19;20009;-72
2023/05/12 01:25:15;;;;;;;14.57;12.38;;;10.70;52.90;;;;;;7373607;19;20087;-72
2023/05/12 01:27:48;;;;;;;16.65;13.27;;;10.70;52.90;;;;;;7374430;19;20006;-71
2023/05/12 01:30:20;;;;;;;17.35;14.07;;;10.70;53.40;;;;;;7370607;19;20582;-71
2023/05/12 01:32:51;;;;;;;13.45;11.85;;;10.70;53.70;;;;;;7392236;19;20046;-71
2023/05/12 01:35:21;;;;;;;16.48;13.43;;;10.70;53.60;;;;;;7372198;19;20094;-72
2023/05/12 01:37:51;;;;;;;16.13;13.32;;;10.70;53.40;;;;;;7373159;19;20011;-72
2023/05/12 01:40:21;;;;;;;16.77;13.20;;;10.70;53.40;;;;;;7370401;19;20007;-72
2023/05/12 01:42:54;;;;;;;17.30;11.95;;;10.60;53.50;;;;;;7370967;19;20352;-73
2023/05/12 01:45:24;;;;;;;15.75;12.02;;;10.60;53.70;;;;;;7372182;19;20021;-72
2023/05/12 01:47:54;;;;;;;15.38;12.70;;;10.70;54.00;;;;;;7395299;19;20347;-72
2023/05/12 01:50:24;;;;;;;15.57;12.40;;;10.70;54.00;;;;;;7369266;19;20003;-72
2023/05/12 01:52:54;;;;;;;14.88;12.13;;;10.70;54.20;;;;;;7371695;19;20002;-71
2023/05/12 01:55:24;;;;;;;15.77;11.65;;;10.70;54.20;;;;;;7370920;19;20014;-70
2023/05/12 01:57:56;;;;;;;13.48;11.38;;;10.70;53.70;;;;;;7372131;19;20434;-72
2023/05/12 02:00:26;;;;;;;14.35;11.10;;;10.70;53.90;;;;;;7368774;19;20543;-73
2023/05/12 02:02:56;;;;;;;12.90;10.57;;;10.70;54.10;;;;;;7392784;19;20081;-72
2023/05/12 02:05:26;;;;;;;14.07;11.40;;;10.70;54.20;;;;;;7370488;19;20006;-71
2023/05/12 02:07:56;;;;;;;16.88;11.80;;;10.70;54.30;;;;;;7372152;19;20514;-71
2023/05/12 02:10:26;;;;;;;15.27;10.93;;;10.70;54.50;;;;;;7368834;19;20466;-72
2023/05/12 02:12:59;;;;;;;15.23;11.13;;;10.70;54.90;;;;;;7369471;19;20037;-71
2023/05/12 02:15:29;;;;;;;14.52;10.45;;;10.60;54.10;;;;;;7369690;19;20074;-72
2023/05/12 02:17:58;;;;;;;13.25;10.98;;;10.70;54.50;;;;;;7394039;19;20010;-72
2023/05/12 02:20:29;;;;;;;12.77;10.48;;;10.70;54.60;;;;;;7367277;19;20038;-72
2023/05/12 02:22:59;;;;;;;12.57;10.27;;;10.70;54.90;;;;;;7370304;19;20006;-72
2023/05/12 02:25:29;;;;;;;16.25;11.55;;;10.70;54.70;;;;;;7370218;19;20019;-71
2023/05/12 02:28:02;;;;;;;15.27;11.93;;;10.60;54.90;;;;;;7371600;19;20699;-71
2023/05/12 02:30:32;;;;;;;16.63;12.45;;;10.70;54.90;;;;;;7366995;19;20014;-71
2023/05/12 02:33:04;;;;;;;20.48;14.32;;;10.70;54.80;;;;;;7392328;19;20495;-71
2023/05/12 02:35:34;;;;;;;17.80;12.68;;;10.70;54.60;;;;;;7369668;19;20007;-71
2023/05/12 02:38:04;;;;;;;19.48;13.75;;;10.70;54.50;;;;;;7368793;19;20034;-72
2023/05/12 02:40:33;;;;;;;21.63;13.75;;;10.70;54.50;;;;;;7367886;19;20370;-71
2023/05/12 02:43:06;;;;;;;21.00;14.07;;;10.70;54.10;;;;;;7369441;19;20563;-73
2023/05/12 02:45:36;;;;;;;23.02;14.65;;;10.70;54.60;;;;;;7369220;19;20010;-71
2023/05/12 02:48:07;;;;;;;20.88;14.45;;;10.80;54.60;;;;;;7392581;19;20021;-73
2023/05/12 02:50:37;;;;;;;21.85;14.20;;;10.80;54.30;;;;;;7367819;19;20010;-72
2023/05/12 02:53:07;;;;;;;26.92;16.15;;;10.80;54.20;;;;;;7369772;19;20011;-71
2023/05/12 02:55:37;;;;;;;34.55;16.20;;;10.70;54.10;;;;;;7369100;19;20038;-72
2023/05/12 02:58:09;;;;;;;25.83;16.27;;;10.60;54.00;;;;;;7370426;19;20015;-72
2023/05/12 03:00:39;;;;;;;24.80;15.68;;;10.60;54.00;;;;;;7367294;19;20010;-72
2023/05/12 03:03:09;;;;;;;24.15;15.90;;;10.60;54.30;;;;;;7390889;19;20371;-73
2023/05/12 03:05:40;;;;;;;28.20;16.23;;;10.60;54.40;;;;;;7369434;19;20015;-72
2023/05/12 03:08:09;;;;;;;25.85;16.30;;;10.70;54.30;;;;;;7369833;19;20014;-72
2023/05/12 03:10:39;;;;;;;23.10;14.82;;;10.70;54.80;;;;;;7366712;19;20018;-71
2023/05/12 03:13:12;;;;;;;27.80;16.08;;;10.70;55.10;;;;;;7369563;19;20020;-72
2023/05/12 03:15:42;;;;;;;33.08;17.02;;;10.70;54.10;;;;;;7368725;19;20482;-72
2023/05/12 03:18:11;;;;;;;24.58;16.40;;;10.60;54.60;;;;;;7370077;19;20014;-72
2023/05/12 03:20:42;;;;;;;26.15;16.15;;;10.60;54.10;;;;;;7387457;19;20478;-72
2023/05/12 03:23:11;;;;;;;25.77;16.27;;;10.60;54.30;;;;;;7369065;19;20085;-72
2023/05/12 03:25:41;;;;;;;23.50;15.68;;;10.60;54.60;;;;;;7368480;19;20002;-72
2023/05/12 03:28:14;;;;;;;24.58;16.05;;;10.60;54.80;;;;;;7369183;19;20022;-72
2023/05/12 03:30:44;;;;;;;24.85;16.20;;;10.50;54.70;;;;;;7366054;19;20401;-72
2023/05/12 03:33:14;;;;;;;23.98;15.45;;;10.60;54.70;;;;;;7367948;19;20482;-72
2023/05/12 03:35:44;;;;;;;22.70;15.98;;;10.60;54.60;;;;;;7390196;19;20010;-72
2023/05/12 03:38:13;;;;;;;21.38;15.40;;;10.60;54.40;;;;;;7367940;19;20074;-71
2023/05/12 03:40:43;;;;;;;21.73;15.00;;;10.60;54.00;;;;;;7365811;19;20570;-72
2023/05/12 03:43:16;;;;;;;23.48;15.20;;;10.50;53.90;;;;;;7368481;19;20467;-73
2023/05/12 03:45:45;;;;;;;29.48;15.40;;;10.60;54.10;;;;;;7368759;19;20018;-72
2023/05/12 03:48:15;;;;;;;22.02;14.18;;;10.60;54.70;;;;;;7367938;19;20039;-72
2023/05/12 03:50:45;;;;;;;24.20;15.00;;;10.60;54.50;;;;;;7387183;19;20018;-72
2023/05/12 03:53:16;;;;;;;23.17;15.43;;;10.60;54.20;;;;;;7368478;19;20073;-72
2023/05/12 03:55:46;;;;;;;23.40;14.88;;;10.60;54.30;;;;;;7368380;19;20009;-70
2023/05/12 03:58:18;;;;;;;23.33;14.80;;;10.50;54.00;;;;;;7367406;19;20010;-71
2023/05/12 04:00:49;;;;;;;24.35;15.13;;;10.60;54.10;;;;;;7365498;19;20502;-71
2023/05/12 04:03:18;;;;;;;26.50;15.65;;;10.60;54.40;;;;;;7368685;19;20021;-71
2023/05/12 04:05:48;;;;;;;22.08;15.35;;;10.60;54.30;;;;;;7389122;19;20374;-72
2023/05/12 04:08:18;;;;;;;23.67;16.50;;;10.60;54.20;;;;;;7367116;19;20467;-72
2023/05/12 04:10:48;;;;;;;23.65;16.20;;;10.50;54.50;;;;;;7365748;19;20083;-71
2023/05/12 04:13:21;;;;;;;23.05;16.23;;;10.50;55.10;;;;;;7367749;19;20006;-72
2023/05/12 04:15:51;;;;;;;23.42;16.02;;;10.60;55.20;;;;;;7367734;19;20033;-71
2023/05/12 04:18:21;;;;;;;23.83;15.82;;;10.60;54.70;;;;;;7367069;19;20486;-72
2023/05/12 04:20:51;;;;;;;22.30;15.57;;;10.60;54.80;;;;;;7385128;19;20746;-71
2023/05/12 04:23:21;;;;;;;23.35;15.65;;;10.60;54.40;;;;;;7366718;19;20013;-72
2023/05/12 04:25:51;;;;;;;25.83;16.38;;;10.60;54.40;;;;;;7367556;19;20118;-72
2023/05/12 04:28:24;;;;;;;24.00;15.63;;;10.60;54.80;;;;;;7367542;19;20007;-71
2023/05/12 04:30:53;;;;;;;26.33;15.63;;;10.60;54.80;;;;;;7363164;19;20038;-71
2023/05/12 04:33:23;;;;;;;19.92;14.55;;;10.50;54.30;;;;;;7366397;19;20007;-72
2023/05/12 04:35:57;;;;;;;18.80;13.40;;;10.60;54.80;;;;;;7389087;19;20466;-72
2023/05/12 04:38:27;;;;;;;20.00;14.55;;;10.50;53.90;;;;;;7374065;19;20090;-72
2023/05/12 04:41:00;;;;;;;20.38;14.38;;;10.50;54.00;;;;;;7371286;19;20009;-72
2023/05/12 04:43:32;;;;;;;19.45;14.23;;;10.50;53.90;;;;;;7374094;19;20474;-72
2023/05/12 04:46:06;;;;;;;23.70;15.35;;;10.60;54.40;;;;;;7372775;19;20014;-72
2023/05/12 04:48:40;;;;;;;21.75;15.10;;;10.60;54.40;;;;;;7373612;19;20085;-73
2023/05/12 04:51:11;;;;;;;21.27;15.13;;;10.60;54.60;;;;;;7381112;19;20374;-71
2023/05/12 04:53:40;;;;;;;20.67;15.00;;;10.60;54.40;;;;;;7395130;19;20489;-73
2023/05/12 04:56:10;;;;;;;24.55;15.00;;;10.70;54.70;;;;;;7373981;19;20017;-72
2023/05/12 04:58:43;;;;;;;23.45;14.77;;;10.70;54.70;;;;;;7373857;19;20014;-71
2023/05/12 05:01:13;;;;;;;22.23;14.95;;;10.70;54.10;;;;;;7369844;19;20011;-72
2023/05/12 05:03:43;;;;;;;20.88;15.00;;;10.70;53.70;;;;;;7374036;19;20011;-72
2023/05/12 05:06:13;;;;;;;23.50;15.32;;;10.70;53.30;;;;;;7372263;19;20014;-72
2023/05/12 05:08:43;;;;;;;25.02;14.63;;;10.60;54.00;;;;;;7395190;19;20017;-72
2023/05/12 05:11:13;;;;;;;21.92;14.95;;;10.80;53.30;;;;;;7369057;19;20593;-71
2023/05/12 05:13:45;;;;;;;18.40;13.75;;;10.80;52.20;;;;;;7373324;19;20018;-72
2023/05/12 05:16:15;;;;;;;20.30;14.50;;;10.90;53.50;;;;;;7373585;19;20470;-72
2023/05/12 05:18:45;;;;;;;18.23;13.48;;;11.00;52.50;;;;;;7373527;19;20038;-72
2023/05/12 05:21:16;;;;;;;15.93;12.25;;;11.00;51.50;;;;;;7367434;19;20006;-72
2023/05/12 05:23:46;;;;;;;17.25;12.80;;;10.90;52.00;;;;;;7393908;19;20029;-72
2023/05/12 05:26:16;;;;;;;17.80;13.20;;;11.00;50.30;;;;;;7370639;19;20013;-72
2023/05/12 05:28:49;;;;;;;20.58;13.60;;;11.00;50.40;;;;;;7372514;19;20006;-72
2023/05/12 05:31:18;;;;;;;17.10;13.10;;;11.00;50.30;;;;;;7367976;19;20108;-72
2023/05/12 05:33:48;;;;;;;15.88;12.80;;;11.10;48.90;;;;;;7370180;19;20124;-72
2023/05/12 05:36:19;;;;;;;16.63;12.40;;;11.10;48.30;;;;;;7372564;19;20018;-72
2023/05/12 05:38:48;;;;;;;16.73;13.05;;;11.10;46.40;;;;;;7393664;19;20011;-72
2023/05/12 05:41:18;;;;;;;19.17;13.25;;;11.10;46.20;;;;;;7369343;19;20007;-71
2023/05/12 05:43:51;;;;;;;18.00;12.43;;;11.10;45.00;;;;;;7370943;19;20341;-71
2023/05/12 05:46:21;;;;;;;19.38;13.15;;;11.20;45.40;;;;;;7370925;19;20010;-72
2023/05/12 05:48:50;;;;;;;18.20;13.32;;;11.30;45.80;;;;;;7371203;19;20570;-70
2023/05/12 05:51:20;;;;;;;19.02;12.75;;;11.20;42.10;;;;;;7367848;19;20092;-72
2023/05/12 05:53:50;;;;;;;19.10;14.00;;;11.30;43.90;;;;;;7393224;19;20013;-71
2023/05/12 05:56:21;;;;;;;14.60;11.60;;;11.50;44.70;;;;;;7372141;19;20007;-71
2023/05/12 05:58:54;;;;;;;15.57;12.40;;;11.40;41.90;;;;;;7370479;19;20030;-71
2023/05/12 06:01:24;;;;;;;15.55;12.00;;;11.40;41.10;;;;;;7367941;19;20030;-72
2023/05/12 06:03:54;;;;;;;16.90;11.93;;;11.40;39.60;;;;;;7371417;19;20013;-71
2023/05/12 06:06:24;;;;;;;15.90;12.52;;;11.30;38.30;;;;;;7369045;19;20354;-72
2023/05/12 06:08:54;;;;;;;14.88;11.70;;;11.30;40.30;;;;;;7393262;19;20007;-72
2023/05/12 06:11:24;;;;;;;14.55;12.18;;;11.40;41.80;;;;;;7367851;19;20022;-72
2023/05/12 06:13:57;;;;;;;13.63;11.52;;;11.40;40.40;;;;;;7370089;19;20014;-71
2023/05/12 06:16:27;;;;;;;15.52;12.32;;;11.50;39.50;;;;;;7371998;19;20015;-72
2023/05/12 06:18:57;;;;;;;16.10;11.80;;;11.60;38.80;;;;;;7370931;19;20010;-72
2023/05/12 06:21:27;;;;;;;15.27;11.80;;;11.60;38.20;;;;;;7368236;19;20015;-71
2023/05/12 06:23:57;;;;;;;14.18;11.25;;;11.60;38.40;;;;;;7388365;19;20078;-71
2023/05/12 06:26:27;;;;;;;14.40;11.55;;;11.60;37.20;;;;;;7368993;19;20010;-71
2023/05/12 06:29:00;;;;;;;17.88;12.10;;;11.70;38.50;;;;;;7369853;19;20026;-71
2023/05/12 06:31:30;;;;;;;15.55;11.45;;;11.80;38.60;;;;;;7368110;19;20489;-72
2023/05/12 06:33:59;;;;;;;14.68;11.35;;;11.80;36.80;;;;;;7368390;19;20077;-71
2023/05/12 06:36:29;;;;;;;14.60;10.88;;;11.70;36.10;;;;;;7370159;19;21468;-71
2023/05/12 06:38:59;;;;;;;13.35;11.00;;;11.80;37.40;;;;;;7392162;19;20034;-71
2023/05/12 06:41:29;;;;;;;16.13;11.07;;;11.90;35.90;;;;;;7366966;19;20013;-71
2023/05/12 06:44:02;;;;;;;15.00;10.70;;;11.90;33.70;;;;;;7368440;19;20018;-72
2023/05/12 06:46:32;;;;;;;14.65;10.93;;;11.90;33.70;;;;;;7370620;19;20015;-72
2023/05/12 06:49:02;;;;;;;13.25;10.50;;;11.90;31.80;;;;;;7368020;19;20014;-72
2023/05/12 06:51:32;;;;;;;15.85;11.20;;;11.90;33.90;;;;;;7367753;19;20926;-70
2023/05/12 06:54:02;;;;;;;14.00;10.18;;;11.90;31.80;;;;;;7390450;19;20030;-72
2023/05/12 06:56:32;;;;;;;11.77;9.60;;;12.00;31.70;;;;;;7370083;19;20078;-72
2023/05/12 06:59:05;;;;;;;13.32;10.32;;;12.20;32.00;;;;;;7367441;19;20010;-71
2023/05/12 07:01:35;;;;;;;12.95;10.20;;;12.10;30.40;;;;;;7367058;19;20011;-71
2023/05/12 07:04:06;;;;;;;15.38;11.20;;;12.30;30.40;;;;;;7367825;19;20002;-72
2023/05/12 07:06:36;;;;;;;13.02;10.63;;;12.20;30.00;;;;;;7369595;19;20014;-71
2023/05/12 07:09:06;;;;;;;12.60;10.27;;;12.20;29.30;;;;;;7390884;19;20018;-72
2023/05/12 07:11:36;;;;;;;11.68;10.02;;;12.30;30.40;;;;;;7367088;19;20007;-72
2023/05/12 07:14:09;;;;;;;11.10;9.90;;;12.30;30.50;;;;;;7367377;19;20382;-72
2023/05/12 07:16:39;;;;;;;15.60;10.90;;;12.30;30.40;;;;;;7369283;19;20010;-72
2023/05/12 07:19:09;;;;;;;14.23;10.98;;;12.40;29.60;;;;;;7367367;19;20017;-72
2023/05/12 07:21:39;;;;;;;12.93;10.20;;;12.50;29.60;;;;;;7365713;19;20028;-72
2023/05/12 07:24:09;;;;;;;12.27;10.50;;;12.50;27.20;;;;;;7389107;19;20042;-72
2023/05/12 07:26:39;;;;;;;14.98;10.43;;;12.50;27.10;;;;;;7368181;19;20412;-72
2023/05/12 07:29:12;;;;;;;16.08;10.43;;;12.50;27.20;;;;;;7367508;19;20014;-72
2023/05/12 07:31:42;;;;;;;10.27;9.02;;;12.60;26.10;;;;;;7366268;19;20017;-71
2023/05/12 07:34:13;;;;;;;10.77;9.25;;;12.90;23.40;;;;;;7367689;19;20018;-71
2023/05/12 07:36:43;;;;;;;11.75;8.60;;;12.90;21.30;;;;;;7368201;19;20020;-72
2023/05/12 07:39:17;;;;;;;10.85;8.80;;;13.20;17.20;;;;;;7367811;19;20025;-72
2023/05/12 07:41:48;;;;;;;12.25;8.57;;;13.10;16.20;;;;;;7386621;19;20010;-72
2023/05/12 07:44:20;;;;;;;11.55;8.90;;;13.30;17.20;;;;;;7367144;19;20002;-72
2023/05/12 07:46:50;;;;;;;9.60;8.60;;;13.40;16.50;;;;;;7367521;19;20078;-71
2023/05/12 07:49:20;;;;;;;9.32;7.57;;;13.50;15.20;;;;;;7367464;19;20014;-71
2023/05/12 07:51:50;;;;;;;10.63;7.07;;;13.30;13.70;;;;;;7364081;19;20002;-70
2023/05/12 07:54:21;;;;;;;7.20;6.32;;;13.40;12.90;;;;;;7367572;19;20017;-71
2023/05/12 07:56:51;;;;;;;8.15;6.68;;;13.60;9.00;;;;;;7389390;19;20015;-71
2023/05/12 07:59:23;;;;;;;7.80;7.00;;;13.20;9.10;;;;;;7367782;19;20021;-72
2023/05/12 08:01:53;;;;;;;10.65;8.38;;;13.40;10.50;;;;;;7363837;19;20014;-72
2023/05/12 08:04:23;;;;;;;8.63;7.72;;;13.40;10.10;;;;;;7367286;19;20027;-72
2023/05/12 08:06:53;;;;;;;8.88;7.00;;;13.60;10.60;;;;;;7366639;19;20518;-72
2023/05/12 08:09:23;;;;;;;7.68;6.88;;;13.80;10.70;;;;;;7366549;19;20014;-72
2023/05/12 08:11:53;;;;;;;7.43;6.40;;;13.70;7.70;;;;;;7390188;19;20343;-72
2023/05/12 08:14:25;;;;;;;10.35;8.13;;;13.90;6.90;;;;;;7372594;19;20010;-71
2023/05/12 08:16:55;;;;;;;15.25;9.35;;;14.10;5.60;;;;;;7374095;19;20013;-71
2023/05/12 08:19:25;;;;;;;10.52;8.43;;;14.20;1.00;;;;;;7373930;19;20007;-71
2023/05/12 08:21:55;;;;;;;7.68;6.72;;;14.30;3.70;;;;;;7372388;19;20009;-71
2023/05/12 08:24:26;;;;;;;8.77;7.45;;;14.70;1.00;;;;;;7374143;19;20018;-72
2023/05/12 08:26:55;;;;;;;7.53;6.78;;;14.90;1.00;;;;;;7394923;19;20448;-72
2023/05/12 08:29:28;;;;;;;9.13;6.80;;;14.60;1.00;;;;;;7373013;19;20017;-71
2023/05/12 08:31:59;;;;;;;8.40;6.72;;;14.50;1.00;;;;;;7371466;19;20006;-71
2023/05/12 08:34:29;;;;;;;9.02;7.85;;;14.20;1.00;;;;;;7373775;19;20017;-71
2023/05/12 08:36:59;;;;;;;7.32;6.53;;;14.80;1.00;;;;;;7373909;19;20530;-71
2023/05/12 08:39:30;;;;;;;8.35;6.82;;;14.90;1.00;;;;;;7373555;19;21893;-71
2023/05/12 08:42:09;;;;;;;7.97;6.88;;;14.80;1.00;;;;;;7393927;19;20082;-71
2023/05/12 08:44:42;;;;;;;7.57;5.88;;;14.60;1.00;;;;;;7373588;19;20011;-71
2023/05/12 08:47:14;;;;;;;8.55;7.13;;;14.50;1.00;;;;;;7372344;19;20078;-71
2023/05/12 08:49:45;;;;;;;8.38;6.38;;;14.40;1.00;;;;;;7371534;19;20082;-72
2023/05/12 08:52:20;;;;;;;7.32;6.43;;;14.50;1.00;;;;;;7372890;19;20010;-71
2023/05/12 08:54:52;;;;;;;6.63;5.93;;;14.60;1.00;;;;;;7372687;19;20483;-72
2023/05/12 08:57:25;;;;;;;;;;;14.50;1.00;;;;;;7373559;19;20006;-72
2023/05/12 09:00:00;;;;;;;6.93;6.03;;;14.60;1.00;;;;;;7391265;19;19945;-72
2023/05/12 09:02:34;;;;;;;7.93;6.13;;;14.70;1.00;;;;;;7372367;19;20483;-72
2023/05/12 09:05:20;;;;;;;8.57;5.82;;;14.80;1.00;;;;;;7372326;19;20010;-72
2023/05/12 09:07:53;;;;;;;7.00;5.82;;;14.70;1.00;;;;;;7371242;19;20007;-72
2023/05/12 09:10:24;;;;;;;6.90;5.97;;;14.90;1.00;;;;;;7369173;19;20010;-72
2023/05/12 09:13:11;;;;;;;9.45;6.32;;;14.90;1.00;;;;;;7372227;19;20051;-72
2023/05/12 09:15:47;;;;;;;7.32;6.10;;;14.80;1.00;;;;;;7372039;19;20012;-70
2023/05/12 09:18:17;;;;;;;7.28;5.68;;;14.80;1.00;;;;;;7370929;19;20630;-70
2023/05/12 09:20:46;;;;;;;7.20;5.72;;;14.70;1.00;;;;;;7391091;19;20011;-70
2023/05/12 09:23:19;;;;;;;8.63;6.43;;;14.90;1.00;;;;;;7371921;19;20030;-71
2023/05/12 09:25:49;;;;;;;6.38;5.28;;;15.20;1.00;;;;;;7373293;19;20006;-71
2023/05/12 09:28:19;;;;;;;6.60;4.82;;;15.60;1.00;;;;;;7371127;19;20042;-70
2023/05/12 09:30:52;;;;;;;6.63;5.03;;;16.20;1.00;;;;;;7369516;19;20007;-70
2023/05/12 09:33:24;;;;;;;6.00;4.93;;;16.20;1.00;;;;;;7371547;19;20113;-70
2023/05/12 09:35:54;;;;;;;5.30;4.78;;;15.80;1.00;;;;;;7394828;19;20010;-70
2023/05/12 09:38:24;;;;;;;4.20;3.80;;;16.30;1.00;;;;;;7371678;19;20027;-71
2023/05/12 09:40:54;;;;;;;4.22;3.42;;;16.50;1.00;;;;;;7369566;19;20045;-71
2023/05/12 09:43:24;;;;;;;4.50;4.05;;;16.40;1.00;;;;;;7371152;19;20034;-73
2023/05/12 09:45:56;;;;;;;4.63;3.90;;;16.00;1.00;;;;;;7372268;19;20016;-71
2023/05/12 09:48:26;;;;;;;3.53;3.22;;;16.10;1.00;;;;;;7370147;19;20482;-72
2023/05/12 09:50:57;;;;;;;5.22;3.58;;;16.80;1.00;;;;;;7389658;19;20010;-72
2023/05/12 09:53:27;;;;;;;3.83;3.15;;;15.90;1.00;;;;;;7370403;19;20077;-71
2023/05/12 09:55:57;;;;;;;4.72;3.45;;;15.90;1.00;;;;;;7372155;19;20075;-72
2023/05/12 09:58:30;;;;;;;7.40;3.42;;;15.90;1.00;;;;;;7370486;19;20010;-71
2023/05/12 10:01:02;;;;;;;4.88;3.67;;;16.30;1.00;;;;;;7368568;19;20014;-71
2023/05/12 10:03:53;;;;;;;6.70;3.92;;;16.30;1.00;;;;;;7371076;19;20030;-71
2023/05/12 10:06:27;;;;;;;4.30;3.90;;;16.10;1.00;;;;;;7371356;19;20003;-71
2023/05/12 10:09:13;;;;;;;3.97;3.60;;;16.00;1.00;;;;;;7389634;19;20488;-71
2023/05/12 10:11:43;;;;;;;5.43;3.55;;;15.40;1.00;;;;;;7368941;19;20007;-71
2023/05/12 10:14:13;;;;;;;3.72;3.35;;;16.00;1.00;;;;;;7370586;19;20014;-71
2023/05/12 10:16:47;;;;;;;3.90;3.13;;;15.50;1.00;;;;;;7371447;19;20007;-71
2023/05/12 10:19:17;;;;;;;;;;;15.70;1.00;;;;;;7369309;19;20391;-71
2023/05/12 10:21:48;;;;;;;3.65;3.10;;;15.40;1.00;;;;;;7367819;19;19934;-71
2023/05/12 10:24:18;;;;;;;6.97;3.40;;;15.40;1.00;;;;;;7370908;19;20382;-71
2023/05/12 10:26:48;;;;;;;5.38;3.38;;;15.30;1.00;;;;;;7390885;19;20018;-71
2023/05/12 10:29:19;;;;;;;4.78;3.08;;;15.30;1.00;;;;;;7367547;19;20010;-71
2023/05/12 10:31:51;;;;;;;4.10;3.60;;;15.30;1.00;;;;;;7366418;19;20006;-71
2023/05/12 10:34:21;;;;;;;5.82;3.88;;;15.70;1.00;;;;;;7368152;19;20007;-71
2023/05/12 10:36:53;;;;;;;5.63;3.45;;;15.60;1.00;;;;;;7371051;19;20010;-70
2023/05/12 10:39:29;;;;;;;3.83;3.30;;;15.30;1.00;;;;;;7369919;19;20102;-71
2023/05/12 10:42:04;;;;;;;3.88;2.97;;;15.30;1.00;;;;;;7389667;19;20018;-70
2023/05/12 10:44:34;;;;;;;2.13;1.98;;;14.90;1.00;;;;;;7370138;19;20018;-70
2023/05/12 10:47:14;;;;;;;4.97;1.90;;;14.90;1.00;;;;;;7370596;19;19998;-70
2023/05/12 10:49:45;;;;;;;2.85;1.70;;;15.00;1.00;;;;;;7367409;19;20422;-70
2023/05/12 10:52:21;;;;;;;1.80;0.95;;;15.20;1.00;;;;;;7369384;19;20114;-70
2023/05/12 10:54:51;;;;;;;1.50;1.00;;;15.30;1.00;;;;;;7369283;19;20018;-71
2023/05/12 10:57:22;;;;;;;1.77;1.00;;;15.30;1.00;;;;;;7370566;19;20010;-71
2023/05/12 10:59:53;;;;;;;1.10;1.00;;;15.10;1.00;;;;;;7388355;19;20015;-70
2023/05/12 11:02:29;;;;;;;1.50;1.00;;;15.10;1.00;;;;;;7364980;19;20031;-71
2023/05/12 11:05:04;;;;;;;1.60;1.20;;;15.00;1.00;;;;;;7366460;19;20006;-72
2023/05/12 11:07:36;;;;;;;2.85;1.58;;;15.10;1.00;;;;;;7369386;19;20164;-70
2023/05/12 11:10:07;;;;;;;2.00;1.70;;;15.30;1.00;;;;;;7365377;19;20351;-70
2023/05/12 11:12:37;;;;;;;2.80;2.50;;;15.20;1.00;;;;;;7367353;19;20034;-72
2023/05/12 11:15:09;;;;;;;4.35;2.58;;;15.20;1.00;;;;;;7399619;19;20003;-71
2023/05/12 11:17:43;;;;;;;3.20;2.80;;;15.20;1.00;;;;;;7404427;19;20028;-71
2023/05/12 11:20:24;;;;;;;4.18;3.15;;;15.10;1.00;;;;;;7397635;19;20010;-70
2023/05/12 11:22:54;;;;;;;4.22;3.45;;;15.00;1.00;;;;;;7396143;19;20011;-71
2023/05/12 11:25:28;;;;;;;4.75;4.15;;;15.00;1.00;;;;;;7373447;19;20368;-71
2023/05/12 11:27:58;;;;;;;5.82;3.92;;;15.00;1.00;;;;;;7373234;19;20451;-71
2023/05/12 11:30:28;;;;;;;5.72;4.60;;;15.10;1.00;;;;;;7369653;19;20019;-71
2023/05/12 11:33:05;;;;;;;6.22;4.97;;;15.10;1.00;;;;;;7392173;19;20011;-71
2023/05/12 11:35:35;;;;;;;8.02;5.68;;;15.20;1.00;;;;;;7372211;19;20026;-70
2023/05/12 11:38:17;;;;;;;7.25;4.60;;;15.10;1.00;;;;;;7370548;19;20007;-72
2023/05/12 11:40:47;;;;;;;7.38;4.40;;;14.90;1.00;;;;;;7368484;19;20011;-71
2023/05/12 11:43:22;;;;;;;4.55;4.10;;;14.70;1.00;;;;;;7369891;19;20007;-72
2023/05/12 11:45:54;;;;;;;5.40;4.20;;;14.50;1.00;;;;;;7369680;19;20082;-71
2023/05/12 11:48:35;;;;;;;6.28;3.33;;;14.70;1.00;;;;;;7368595;19;20074;-71
2023/05/12 11:51:06;;;;;;;3.65;3.20;;;14.80;1.00;;;;;;7388910;19;20100;-69
2023/05/12 11:53:42;;;;;;;4.10;2.58;;;14.80;1.00;;;;;;7367760;19;20018;-71
2023/05/12 11:56:20;;;;;;;3.03;2.65;;;15.10;1.00;;;;;;7368674;19;20033;-71
2023/05/12 11:58:55;;;;;;;2.67;2.10;;;15.30;1.00;;;;;;7369312;19;20062;-72
2023/05/12 12:01:25;;;;;;;;;;;15.70;1.00;;;;;;7366584;19;20025;-71
2023/05/12 12:03:57;;;;;;;3.63;3.00;;;15.90;1.00;;;;;;7367177;19;19919;-71
2023/05/12 12:06:27;;;;;;;3.03;2.72;;;15.90;1.00;;;;;;7369614;19;20022;-71
2023/05/12 12:09:00;;;;;;;3.67;3.10;;;16.00;1.00;;;;;;7388625;19;20438;-71
2023/05/12 12:11:30;;;;;;;3.45;2.92;;;15.80;1.00;;;;;;7366068;19;20014;-69
2023/05/12 12:14:01;;;;;;;3.55;2.70;;;15.80;1.00;;;;;;7367870;19;20014;-72
2023/05/12 12:16:32;;;;;;;2.70;2.50;;;15.80;1.00;;;;;;7369964;19;20427;-71
2023/05/12 12:19:06;;;;;;;2.90;2.60;;;15.80;1.00;;;;;;7369802;19;20060;-71
2023/05/12 12:21:36;;;;;;;4.05;3.38;;;15.90;1.00;;;;;;7369105;19;20080;-70
2023/05/12 12:24:07;;;;;;;3.95;3.35;;;15.80;1.00;;;;;;7390368;19;20034;-69
2023/05/12 12:26:37;;;;;;;5.57;4.45;;;15.80;1.00;;;;;;7371644;19;20017;-71
2023/05/12 12:29:08;;;;;;;5.85;4.35;;;15.80;1.00;;;;;;7370411;19;20015;-71
2023/05/12 12:31:38;;;;;;;6.15;5.22;;;15.80;1.00;;;;;;7369305;19;20010;-71
2023/05/12 12:34:11;;;;;;;7.53;5.00;;;15.60;1.00;;;;;;7367542;19;20281;-70
2023/05/12 12:36:41;;;;;;;6.47;5.50;;;15.80;1.00;;;;;;7370463;19;20541;-71
2023/05/12 12:39:11;;;;;;;5.93;5.32;;;15.80;1.00;;;;;;7378364;19;20021;-72
2023/05/12 12:41:42;;;;;;;5.22;4.60;;;15.80;1.00;;;;;;7387843;19;20081;-70
2023/05/12 12:44:12;;;;;;;5.35;4.50;;;16.00;1.00;;;;;;7365369;19;20510;-71
2023/05/12 12:46:42;;;;;;;5.82;3.80;;;15.70;1.00;;;;;;7367874;19;20407;-71
2023/05/12 12:49:14;;;;;;;6.72;4.40;;;15.90;1.00;;;;;;7366800;19;21825;-70
2023/05/12 12:51:44;;;;;;;5.78;5.18;;;15.80;1.00;;;;;;7361872;19;20014;-71
2023/05/12 12:54:16;;;;;;;5.47;4.93;;;16.00;1.00;;;;;;7365576;19;20014;-71
2023/05/12 12:56:46;;;;;;;5.60;5.10;;;15.90;1.00;;;;;;7385094;19;20086;-71
2023/05/12 12:59:16;;;;;;;6.75;5.45;;;15.80;1.00;;;;;;7369303;19;20383;-71
2023/05/12 13:01:46;;;;;;;6.40;5.43;;;16.10;1.00;;;;;;7372622;19;20007;-71